Time;durP1;ratioP1;P1;durP2;ratioP2;P2;SDS_P1;SDS_P2;PMS_P1;PMS_P2;Temp;Humidity;BMP_temperature;BMP_pressure;BME280_temperature;BME280_humidity;BME280_pressure;Samples;Min_cycle;Max_cycle;Signal;HPM_P1;HPM_P2
2022/01/28 00:02:31;;;;;;;0.80;0.80;;;3.30;99.90;;;;;;5081870;28;20073;-86
2022/01/28 00:04:55;;;;;;;0.80;0.80;;;3.30;99.90;;;;;;5072166;28;20074;-84
2022/01/28 00:07:20;;;;;;;1.15;1.15;;;3.40;99.90;;;;;;5056505;28;20738;-85
2022/01/28 00:09:46;;;;;;;0.80;0.80;;;3.50;99.90;;;;;;5061257;28;20096;-86
2022/01/28 00:12:12;;;;;;;0.75;0.75;;;3.60;99.90;;;;;;5061306;28;20040;-86
2022/01/28 00:14:54;;;;;;;0.80;0.80;;;3.50;99.90;;;;;;5078445;28;20068;-85
2022/01/28 00:20:46;;;;;;;0.70;0.70;;;3.50;99.90;;;;;;5080621;28;20504;-86
2022/01/28 00:37:58;;;;;;;0.73;0.73;;;3.20;99.90;;;;;;5081058;28;20052;-84
2022/01/28 00:39:22;;;;;;;;;;;3.20;99.90;;;;;;5067907;28;20103;-84
2022/01/28 00:41:48;;;;;;;2.38;1.33;;;3.10;99.90;;;;;;5074474;28;19921;-85
2022/01/28 00:44:13;;;;;;;1.00;1.00;;;3.20;99.90;;;;;;5064725;28;20040;-85
2022/01/28 00:46:39;;;;;;;3.08;1.08;;;3.20;99.90;;;;;;5064908;28;20040;-86
2022/01/28 00:49:04;;;;;;;0.80;0.80;;;3.20;99.90;;;;;;5064297;28;20037;-86
2022/01/28 00:51:30;;;;;;;0.80;0.80;;;3.20;99.90;;;;;;5062988;28;20048;-86
2022/01/28 00:53:55;;;;;;;0.77;0.77;;;3.20;99.90;;;;;;5064199;28;20112;-85
2022/01/28 00:56:21;;;;;;;0.80;0.80;;;3.20;99.90;;;;;;5074106;28;20083;-86
2022/01/28 00:58:46;;;;;;;4.68;1.23;;;3.40;99.90;;;;;;5081175;28;20119;-86
2022/01/28 01:01:12;;;;;;;0.70;0.70;;;3.30;99.90;;;;;;5080117;28;20071;-87
2022/01/28 01:03:37;;;;;;;0.80;0.80;;;3.40;99.90;;;;;;5081245;28;20468;-85
2022/01/28 01:06:03;;;;;;;0.88;0.88;;;3.40;99.90;;;;;;5062624;28;20037;-86
2022/01/28 01:08:28;;;;;;;2.10;1.27;;;3.50;99.90;;;;;;5062630;28;20064;-86
2022/01/28 01:10:54;;;;;;;0.80;0.80;;;3.50;99.90;;;;;;5073730;28;20051;-86
2022/01/28 01:13:20;;;;;;;2.25;2.08;;;3.40;99.90;;;;;;5078840;28;20045;-86
2022/01/28 01:15:51;;;;;;;0.80;0.80;;;3.40;99.90;;;;;;5080826;28;20052;-86
2022/01/28 01:18:24;;;;;;;0.80;0.80;;;3.40;99.90;;;;;;5048850;28;20108;-86
2022/01/28 01:20:59;;;;;;;0.82;0.82;;;3.50;99.90;;;;;;5060157;28;20072;-86
2022/01/28 01:23:34;;;;;;;1.73;1.13;;;3.90;99.90;;;;;;5060950;28;20086;-87
2022/01/28 01:28:33;;;;;;;0.70;0.70;;;3.50;99.90;;;;;;5072643;28;20373;-86
2022/01/28 01:31:00;;;;;;;0.70;0.70;;;3.50;99.90;;;;;;5079833;28;20120;-86
2022/01/28 01:33:28;;;;;;;0.70;0.70;;;3.50;99.90;;;;;;5063373;28;20044;-86
2022/01/28 01:35:54;;;;;;;4.82;1.00;;;3.70;99.90;;;;;;5079501;28;20048;-86
2022/01/28 01:38:24;;;;;;;0.90;0.90;;;3.80;99.90;;;;;;5061207;28;20036;-87
2022/01/28 01:40:54;;;;;;;0.88;0.88;;;3.90;99.90;;;;;;5075678;28;20054;-87
2022/01/28 01:53:39;;;;;;;0.80;0.80;;;3.60;99.90;;;;;;5078964;28;20124;-87
2022/01/28 01:56:05;;;;;;;0.80;0.80;;;3.50;99.90;;;;;;5075106;28;20398;-87
2022/01/28 01:58:32;;;;;;;0.80;0.80;;;3.50;99.90;;;;;;5078989;28;20044;-86
2022/01/28 02:01:00;;;;;;;0.75;0.75;;;3.40;99.90;;;;;;5059323;28;20075;-87
2022/01/28 02:03:26;;;;;;;0.77;0.77;;;3.40;99.90;;;;;;5063079;28;20033;-86
2022/01/28 02:05:55;;;;;;;4.13;1.77;;;3.40;99.90;;;;;;5075237;28;20134;-86
2022/01/28 02:08:21;;;;;;;0.70;0.70;;;3.50;99.90;;;;;;5053757;28;20040;-87
2022/01/28 02:10:49;;;;;;;1.10;1.00;;;3.50;99.90;;;;;;5056889;28;20542;-87
2022/01/28 02:13:14;;;;;;;0.80;0.80;;;3.50;99.90;;;;;;5054345;28;20126;-87
2022/01/28 02:15:40;;;;;;;0.70;0.70;;;3.60;99.90;;;;;;5063914;28;20120;-87
2022/01/28 02:18:05;;;;;;;0.70;0.70;;;3.60;99.90;;;;;;5072085;28;20052;-87
2022/01/28 02:20:35;;;;;;;0.80;0.80;;;3.70;99.90;;;;;;5070189;28;20045;-87
2022/01/28 02:23:02;;;;;;;0.80;0.80;;;3.70;99.90;;;;;;5058947;28;20033;-86
2022/01/28 02:25:31;;;;;;;0.80;0.80;;;3.70;99.90;;;;;;5074037;28;20100;-87
2022/01/28 02:28:01;;;;;;;0.85;0.85;;;3.70;99.90;;;;;;5062893;28;20062;-86
2022/01/28 02:30:27;;;;;;;1.00;1.00;;;3.70;99.90;;;;;;5062529;28;20045;-85
2022/01/28 02:32:58;;;;;;;2.15;2.05;;;3.70;99.90;;;;;;5063055;28;20037;-87
2022/01/28 02:35:24;;;;;;;0.73;0.73;;;3.80;99.90;;;;;;5062431;28;20363;-86
2022/01/28 02:37:49;;;;;;;0.70;0.70;;;3.80;99.90;;;;;;5060332;28;20043;-86
2022/01/28 02:40:15;;;;;;;1.60;1.08;;;3.80;99.90;;;;;;5079431;28;20076;-86
2022/01/28 02:45:25;;;;;;;0.80;0.80;;;3.70;99.90;;;;;;5068226;28;20084;-87
2022/01/28 02:47:56;;;;;;;0.73;0.73;;;3.80;99.90;;;;;;5060079;28;20044;-87
2022/01/28 02:50:22;;;;;;;0.70;0.70;;;3.80;99.90;;;;;;5066841;28;20036;-87
2022/01/28 02:53:01;;;;;;;0.70;0.70;;;3.70;99.90;;;;;;5080904;28;20067;-86
2022/01/28 02:55:29;;;;;;;4.40;1.73;;;3.70;99.90;;;;;;5083568;28;20097;-86
2022/01/28 02:58:04;;;;;;;1.25;1.25;;;3.70;99.90;;;;;;5066207;28;20054;-87
2022/01/28 03:00:30;;;;;;;23.67;1.55;;;3.80;99.90;;;;;;5074135;28;20049;-86
2022/01/28 03:02:55;;;;;;;0.70;0.70;;;3.80;99.90;;;;;;5076899;28;20389;-86
2022/01/28 03:07:46;;;;;;;0.80;0.80;;;3.80;99.90;;;;;;5079776;28;20099;-87
2022/01/28 03:10:26;;;;;;;0.60;0.60;;;3.80;99.90;;;;;;5060706;28;20440;-86
2022/01/28 03:15:26;;;;;;;0.70;0.70;;;3.90;99.90;;;;;;5081883;28;20086;-87
2022/01/28 03:18:09;;;;;;;1.08;1.08;;;3.90;99.90;;;;;;5064415;28;20486;-87
2022/01/28 03:20:40;;;;;;;2.15;1.90;;;3.80;99.90;;;;;;5059313;28;20052;-86
2022/01/28 03:23:06;;;;;;;1.00;1.00;;;3.80;99.90;;;;;;5081885;28;20036;-86
2022/01/28 03:25:35;;;;;;;0.77;0.77;;;3.80;99.90;;;;;;5081363;28;20055;-86
2022/01/28 03:28:00;;;;;;;0.80;0.80;;;3.80;99.90;;;;;;5078709;28;20048;-87
2022/01/28 03:30:26;;;;;;;0.75;0.75;;;3.80;99.90;;;;;;5065812;28;20096;-87
2022/01/28 03:32:52;;;;;;;1.00;0.90;;;3.70;99.90;;;;;;5065220;28;20051;-86
2022/01/28 03:35:19;;;;;;;0.70;0.70;;;3.70;99.90;;;;;;5058234;28;20518;-87
2022/01/28 03:37:45;;;;;;;1.02;0.90;;;3.60;99.90;;;;;;5060784;28;20055;-86
2022/01/28 03:40:11;;;;;;;0.80;0.80;;;3.60;99.90;;;;;;5064742;28;20196;-86
2022/01/28 03:42:37;;;;;;;0.80;0.80;;;3.50;99.90;;;;;;5071948;28;20482;-87
2022/01/28 03:45:05;;;;;;;0.70;0.70;;;3.40;99.90;;;;;;5077843;28;20044;-87
2022/01/28 03:47:31;;;;;;;0.80;0.80;;;3.30;99.90;;;;;;5059271;28;20066;-87
2022/01/28 03:49:56;;;;;;;2.35;2.08;;;3.30;99.90;;;;;;5080237;28;20033;-87
2022/01/28 03:52:22;;;;;;;4.13;1.25;;;3.30;99.90;;;;;;5076182;28;20040;-87
2022/01/28 03:54:48;;;;;;;1.45;1.35;;;3.30;99.90;;;;;;5065481;28;20042;-86
2022/01/28 03:57:14;;;;;;;1.23;1.23;;;3.50;99.90;;;;;;5080067;28;20044;-87
2022/01/28 03:59:39;;;;;;;1.83;1.73;;;3.40;99.90;;;;;;5079967;28;20064;-86
2022/01/28 04:02:06;;;;;;;3.38;1.33;;;3.40;99.90;;;;;;5064743;28;20104;-87
2022/01/28 04:12:36;;;;;;;0.80;0.80;;;3.10;99.90;;;;;;5079932;28;20062;-87
2022/01/28 04:17:47;;;;;;;0.80;0.80;;;2.90;99.90;;;;;;5079511;28;20066;-86
2022/01/28 04:20:13;;;;;;;1.60;1.50;;;2.90;99.90;;;;;;5048776;28;20041;-87
2022/01/28 04:22:39;;;;;;;1.02;1.02;;;2.70;99.90;;;;;;5059369;28;20093;-86
2022/01/28 04:25:05;;;;;;;0.70;0.70;;;2.60;99.90;;;;;;5063705;28;20044;-86
2022/01/28 04:27:31;;;;;;;0.75;0.75;;;2.60;99.90;;;;;;5077397;28;20067;-86
2022/01/28 04:29:56;;;;;;;1.83;1.73;;;2.50;99.90;;;;;;5059534;28;20100;-87
2022/01/28 04:32:24;;;;;;;1.65;1.55;;;2.50;99.90;;;;;;5059827;28;20453;-87
2022/01/28 04:34:49;;;;;;;0.80;0.80;;;2.50;99.90;;;;;;5078507;28;20074;-86
2022/01/28 04:37:41;;;;;;;0.70;0.70;;;2.50;99.90;;;;;;5079737;28;20051;-86
2022/01/28 04:40:13;;;;;;;0.70;0.70;;;2.50;99.90;;;;;;5057919;28;20108;-87
2022/01/28 04:43:44;;;;;;;0.82;0.82;;;2.50;99.90;;;;;;5059644;28;20075;-87
2022/01/28 04:50:40;;;;;;;0.95;0.95;;;2.40;99.90;;;;;;5079507;28;20078;-87
2022/01/28 04:56:14;;;;;;;;;;;2.40;99.90;;;;;;5073389;28;20056;-87
2022/01/28 05:14:49;;;;;;;1.42;1.35;;;2.60;99.90;;;;;;5076592;28;20404;-87
2022/01/28 05:23:53;;;;;;;;;;;2.30;99.90;;;;;;5075949;28;20114;-87
2022/01/28 05:25:47;;;;;;;0.80;0.80;;;2.20;99.90;;;;;;5064636;28;19920;-87
2022/01/28 05:28:13;;;;;;;0.80;0.80;;;2.20;99.90;;;;;;5074955;28;20055;-87
2022/01/28 05:30:39;;;;;;;0.80;0.80;;;2.10;99.90;;;;;;5079883;28;20467;-86
2022/01/28 05:33:05;;;;;;;0.70;0.70;;;2.10;99.90;;;;;;5079695;28;20104;-86
2022/01/28 05:35:31;;;;;;;0.80;0.80;;;2.10;99.90;;;;;;5059602;28;20068;-87
2022/01/28 05:37:56;;;;;;;1.00;1.00;;;2.10;99.90;;;;;;5060668;28;20050;-87
2022/01/28 05:40:22;;;;;;;0.80;0.80;;;2.10;99.90;;;;;;5075767;28;20071;-87
2022/01/28 05:42:49;;;;;;;0.80;0.80;;;2.10;99.90;;;;;;5080079;28;20055;-87
2022/01/28 05:45:14;;;;;;;1.23;0.90;;;2.20;99.90;;;;;;5063835;28;20068;-87
2022/01/28 05:47:40;;;;;;;1.58;1.15;;;2.20;99.90;;;;;;5062396;28;20044;-86
2022/01/28 05:50:06;;;;;;;0.80;0.80;;;2.20;99.90;;;;;;5062614;28;20131;-87
2022/01/28 05:52:33;;;;;;;0.80;0.80;;;2.30;99.90;;;;;;5059997;28;20045;-87
2022/01/28 05:54:59;;;;;;;0.85;0.85;;;2.30;99.90;;;;;;5061391;28;20104;-87
2022/01/28 05:57:24;;;;;;;0.80;0.80;;;2.30;99.90;;;;;;5061461;28;20032;-86
2022/01/28 05:59:51;;;;;;;0.75;0.75;;;2.40;99.90;;;;;;5062398;28;20056;-86
2022/01/28 06:02:18;;;;;;;0.80;0.80;;;2.50;99.90;;;;;;5063756;28;20039;-87
2022/01/28 06:04:44;;;;;;;0.80;0.80;;;2.50;99.90;;;;;;5062955;28;20505;-86
2022/01/28 06:07:10;;;;;;;0.80;0.80;;;2.60;99.90;;;;;;5051929;28;20048;-86
2022/01/28 06:09:35;;;;;;;0.90;0.90;;;2.60;99.90;;;;;;5062541;28;20041;-86
2022/01/28 06:12:01;;;;;;;0.80;0.80;;;2.70;99.90;;;;;;5079030;28;20067;-86
2022/01/28 06:14:27;;;;;;;0.70;0.70;;;2.70;99.90;;;;;;5063311;28;20046;-86
2022/01/28 06:16:52;;;;;;;0.80;0.80;;;2.80;99.90;;;;;;5077896;28;20400;-86
2022/01/28 06:19:18;;;;;;;0.80;0.80;;;2.80;99.90;;;;;;5063263;28;20045;-87
2022/01/28 06:21:44;;;;;;;1.77;1.67;;;2.80;99.90;;;;;;5062086;28;20052;-86
2022/01/28 06:24:09;;;;;;;0.70;0.70;;;3.00;99.90;;;;;;5083219;28;20072;-87
2022/01/28 06:26:35;;;;;;;0.70;0.70;;;2.90;99.90;;;;;;5067489;28;20028;-86
2022/01/28 06:29:00;;;;;;;0.80;0.80;;;3.00;99.90;;;;;;5067342;28;20056;-86
2022/01/28 06:31:26;;;;;;;0.70;0.70;;;3.00;99.90;;;;;;5066679;28;20045;-87
2022/01/28 06:33:52;;;;;;;0.70;0.70;;;3.00;99.90;;;;;;5066893;28;20054;-86
2022/01/28 06:36:19;;;;;;;2.80;1.90;;;3.00;99.90;;;;;;5082171;28;20149;-87
2022/01/28 06:38:45;;;;;;;0.70;0.70;;;3.00;99.90;;;;;;5054685;28;20049;-85
2022/01/28 06:41:11;;;;;;;0.60;0.60;;;3.00;99.90;;;;;;5060501;28;20098;-86
2022/01/28 06:43:36;;;;;;;0.70;0.70;;;3.00;99.90;;;;;;5080053;28;20037;-85
2022/01/28 06:46:02;;;;;;;0.80;0.80;;;2.90;99.90;;;;;;5061496;28;20157;-86
2022/01/28 06:48:27;;;;;;;0.77;0.77;;;2.90;99.90;;;;;;5076511;28;20049;-86
2022/01/28 06:50:53;;;;;;;0.80;0.80;;;2.80;99.90;;;;;;5081915;28;20040;-87
2022/01/28 06:53:19;;;;;;;0.70;0.70;;;2.80;99.90;;;;;;5081132;28;20115;-84
2022/01/28 06:55:44;;;;;;;0.80;0.80;;;2.80;99.90;;;;;;5063469;28;20048;-86
2022/01/28 06:58:10;;;;;;;0.73;0.73;;;2.80;99.90;;;;;;5062031;28;20815;-85
2022/01/28 07:00:37;;;;;;;0.70;0.70;;;2.70;99.90;;;;;;5071385;28;20100;-84
2022/01/28 07:03:04;;;;;;;0.80;0.80;;;2.70;99.90;;;;;;5080159;28;20496;-84
2022/01/28 07:05:30;;;;;;;2.88;1.45;;;2.70;99.90;;;;;;5081690;28;20050;-84
2022/01/28 07:07:56;;;;;;;0.90;0.90;;;2.70;99.90;;;;;;5079971;28;20115;-84
2022/01/28 07:10:21;;;;;;;0.80;0.80;;;2.70;99.90;;;;;;5057378;28;20060;-87
2022/01/28 07:12:47;;;;;;;0.75;0.75;;;2.60;99.90;;;;;;5063447;28;20058;-83
2022/01/28 07:15:13;;;;;;;1.00;1.00;;;2.60;99.90;;;;;;5053128;28;20473;-83
2022/01/28 07:17:38;;;;;;;0.80;0.80;;;2.50;99.90;;;;;;5079222;28;20040;-83
2022/01/28 07:20:05;;;;;;;0.80;0.80;;;2.50;99.90;;;;;;5079032;28;20043;-84
2022/01/28 07:22:31;;;;;;;0.90;0.90;;;2.40;99.90;;;;;;5079701;28;20041;-83
2022/01/28 07:24:57;;;;;;;0.80;0.80;;;2.40;99.90;;;;;;5079078;28;20100;-84
2022/01/28 07:27:22;;;;;;;0.80;0.80;;;2.30;99.90;;;;;;5063500;28;20639;-83
2022/01/28 07:29:50;;;;;;;0.80;0.80;;;2.30;99.90;;;;;;5076837;28;20045;-83
2022/01/28 07:32:16;;;;;;;0.80;0.80;;;2.20;99.90;;;;;;5062457;28;20055;-83
2022/01/28 07:34:41;;;;;;;0.80;0.80;;;2.30;99.90;;;;;;5076597;28;20064;-83
2022/01/28 07:37:07;;;;;;;0.80;0.80;;;2.20;99.90;;;;;;5079131;28;20501;-84
2022/01/28 07:39:33;;;;;;;1.20;1.10;;;2.20;99.90;;;;;;5077145;28;20048;-83
2022/01/28 07:41:58;;;;;;;0.80;0.80;;;2.50;99.90;;;;;;5079945;28;20040;-84
2022/01/28 07:44:24;;;;;;;0.80;0.80;;;2.30;99.90;;;;;;5061523;28;20040;-84
2022/01/28 07:46:50;;;;;;;0.80;0.80;;;2.20;99.90;;;;;;5078929;28;20045;-85
2022/01/28 07:49:15;;;;;;;0.80;0.80;;;2.20;99.90;;;;;;5054987;28;20041;-85
2022/01/28 07:51:42;;;;;;;1.73;1.13;;;2.20;99.90;;;;;;5073159;28;20033;-83
2022/01/28 07:54:08;;;;;;;0.75;0.75;;;2.20;99.90;;;;;;5076887;28;20111;-84
2022/01/28 07:56:33;;;;;;;0.80;0.80;;;2.20;99.90;;;;;;5079800;28;20108;-85
2022/01/28 07:58:59;;;;;;;0.70;0.70;;;2.20;99.90;;;;;;5077827;28;20071;-84
2022/01/28 08:01:25;;;;;;;0.75;0.75;;;2.20;99.90;;;;;;5078036;28;20916;-85
2022/01/28 08:03:51;;;;;;;0.80;0.80;;;2.30;99.90;;;;;;5053615;28;20051;-83
2022/01/28 08:06:16;;;;;;;0.80;0.80;;;2.20;99.90;;;;;;5072625;28;20100;-83
2022/01/28 08:08:42;;;;;;;0.80;0.80;;;2.10;99.90;;;;;;5059343;28;20041;-83
2022/01/28 08:11:08;;;;;;;0.80;0.80;;;2.10;99.90;;;;;;5072953;28;20052;-83
2022/01/28 08:13:33;;;;;;;0.90;0.90;;;2.00;99.90;;;;;;5077992;28;20043;-83
2022/01/28 08:15:59;;;;;;;0.90;0.90;;;2.00;99.90;;;;;;5079421;28;20174;-83
2022/01/28 08:18:24;;;;;;;0.80;0.80;;;2.10;99.90;;;;;;5075885;28;20108;-83
2022/01/28 08:20:52;;;;;;;0.90;0.90;;;2.20;99.90;;;;;;5078286;28;20478;-86
2022/01/28 08:23:18;;;;;;;0.80;0.80;;;2.20;99.90;;;;;;5060936;28;20040;-83
2022/01/28 08:25:44;;;;;;;0.75;0.75;;;2.30;99.90;;;;;;5078286;28;21023;-83
2022/01/28 08:28:09;;;;;;;0.80;0.80;;;2.40;99.90;;;;;;5078887;28;20048;-83
2022/01/28 08:30:38;;;;;;;0.80;0.80;;;2.50;99.90;;;;;;5079733;28;20045;-83
2022/01/28 08:33:04;;;;;;;0.80;0.80;;;2.50;99.90;;;;;;5079118;28;20582;-82
2022/01/28 08:35:33;;;;;;;0.70;0.70;;;2.60;99.90;;;;;;5060911;28;20131;-82
2022/01/28 08:37:59;;;;;;;0.80;0.80;;;2.70;99.90;;;;;;5078199;28;20603;-83
2022/01/28 08:40:27;;;;;;;0.70;0.70;;;2.80;99.90;;;;;;5079069;28;20036;-82
2022/01/28 08:42:53;;;;;;;1.20;1.20;;;2.90;99.90;;;;;;5079006;28;20033;-83
2022/01/28 08:45:18;;;;;;;0.88;0.88;;;3.00;99.90;;;;;;5072760;28;20094;-83
2022/01/28 08:47:44;;;;;;;0.80;0.80;;;3.00;99.90;;;;;;5078737;28;20373;-87
2022/01/28 08:50:10;;;;;;;0.80;0.80;;;3.10;99.90;;;;;;5057668;28;20501;-86
2022/01/28 08:52:36;;;;;;;0.70;0.70;;;3.20;99.90;;;;;;5059191;28;20045;-86
2022/01/28 08:55:04;;;;;;;0.90;0.90;;;3.20;99.90;;;;;;5079099;28;20076;-87
2022/01/28 08:57:29;;;;;;;0.98;0.98;;;3.30;99.90;;;;;;5062868;28;20048;-86
2022/01/28 08:59:55;;;;;;;1.20;1.10;;;3.30;99.90;;;;;;5074404;28;20036;-82
2022/01/28 09:02:21;;;;;;;1.27;1.17;;;3.30;99.90;;;;;;5075069;28;20029;-82
2022/01/28 09:04:47;;;;;;;0.77;0.77;;;3.30;99.90;;;;;;5078959;28;20050;-82
2022/01/28 09:07:13;;;;;;;0.77;0.77;;;3.30;99.90;;;;;;5062501;28;20423;-83
2022/01/28 09:09:48;;;;;;;0.70;0.70;;;3.30;99.90;;;;;;5079548;28;20040;-82
2022/01/28 09:12:30;;;;;;;1.10;1.10;;;3.40;99.90;;;;;;5078302;28;20051;-82
2022/01/28 09:14:57;;;;;;;0.80;0.80;;;3.40;99.90;;;;;;5068920;28;21718;-82
2022/01/28 09:17:24;;;;;;;0.70;0.70;;;3.50;99.90;;;;;;5077610;28;20062;-85
2022/01/28 09:19:49;;;;;;;1.00;1.00;;;3.60;99.90;;;;;;5053926;28;20040;-85
2022/01/28 09:22:15;;;;;;;0.80;0.80;;;3.70;99.90;;;;;;5077090;28;20037;-83
2022/01/28 09:24:41;;;;;;;0.70;0.70;;;3.80;99.90;;;;;;5063586;28;20044;-84
2022/01/28 09:27:07;;;;;;;0.80;0.80;;;3.80;99.90;;;;;;5074336;28;20036;-83
2022/01/28 09:29:33;;;;;;;0.80;0.80;;;4.00;99.90;;;;;;5057286;28;20040;-83
2022/01/28 09:32:00;;;;;;;1.35;1.35;;;4.10;99.90;;;;;;5056296;28;20048;-83
2022/01/28 09:34:27;;;;;;;0.70;0.70;;;4.30;99.90;;;;;;5073244;28;20049;-83
2022/01/28 09:36:53;;;;;;;1.02;1.02;;;4.50;99.90;;;;;;5072308;28;20048;-83
2022/01/28 09:39:20;;;;;;;2.60;1.90;;;5.00;99.90;;;;;;5074829;28;20044;-84
2022/01/28 09:41:47;;;;;;;0.85;0.85;;;4.80;99.90;;;;;;5061203;28;20062;-84
2022/01/28 09:44:17;;;;;;;0.70;0.70;;;4.80;99.90;;;;;;5071580;28;20126;-83
2022/01/28 09:46:43;;;;;;;0.75;0.75;;;4.90;99.90;;;;;;5056331;28;20037;-86
2022/01/28 09:49:10;;;;;;;0.80;0.80;;;5.00;99.90;;;;;;5056147;28;20044;-84
2022/01/28 09:51:36;;;;;;;2.05;1.40;;;5.00;99.90;;;;;;5053614;28;20104;-83
2022/01/28 09:54:03;;;;;;;0.70;0.70;;;5.10;99.90;;;;;;5070596;28;20071;-85
2022/01/28 09:56:30;;;;;;;0.70;0.70;;;5.00;99.90;;;;;;5077352;28;20041;-85
2022/01/28 09:58:58;;;;;;;0.70;0.70;;;5.10;99.90;;;;;;5052453;28;20041;-84
2022/01/28 10:01:24;;;;;;;0.63;0.63;;;5.10;99.90;;;;;;5073224;28;20041;-81
2022/01/28 10:04:05;;;;;;;3.15;2.25;;;5.20;99.90;;;;;;5077513;28;20525;-82
2022/01/28 10:06:34;;;;;;;0.70;0.70;;;5.20;99.90;;;;;;5076523;28;20071;-80
2022/01/28 10:09:10;;;;;;;0.70;0.70;;;5.30;99.90;;;;;;5074767;28;20218;-80
2022/01/28 10:11:41;;;;;;;0.77;0.77;;;5.30;99.90;;;;;;5075333;28;20346;-80
2022/01/28 10:14:13;;;;;;;0.70;0.70;;;5.30;99.90;;;;;;5071429;28;20071;-86
2022/01/28 10:16:42;;;;;;;2.88;1.50;;;5.40;99.90;;;;;;5054111;28;20407;-84
2022/01/28 10:19:10;;;;;;;1.27;1.17;;;5.50;99.90;;;;;;5057325;28;20212;-83
2022/01/28 10:21:44;;;;;;;0.70;0.70;;;5.50;99.90;;;;;;5076329;28;20056;-84
2022/01/28 10:24:12;;;;;;;4.60;2.25;;;5.60;99.90;;;;;;5077232;28;20084;-84
2022/01/28 10:26:43;;;;;;;0.70;0.70;;;5.60;99.90;;;;;;5070245;28;20514;-83
2022/01/28 10:29:31;;;;;;;0.70;0.70;;;5.60;99.90;;;;;;5067019;28;20556;-82
2022/01/28 10:32:03;;;;;;;0.60;0.60;;;5.60;99.90;;;;;;5078214;28;20052;-83
2022/01/28 10:34:42;;;;;;;0.90;0.90;;;5.60;99.90;;;;;;5073016;28;20041;-82
2022/01/28 10:37:30;;;;;;;1.20;1.20;;;5.60;99.90;;;;;;5074193;28;20036;-83
2022/01/28 10:40:09;;;;;;;1.67;0.85;;;5.70;99.90;;;;;;5076511;28;20119;-82
2022/01/28 10:42:43;;;;;;;0.70;0.70;;;5.60;99.90;;;;;;5069690;28;20045;-82
2022/01/28 10:45:17;;;;;;;0.60;0.60;;;5.70;99.90;;;;;;5060729;28;20048;-82
2022/01/28 10:47:53;;;;;;;0.60;0.60;;;5.80;99.90;;;;;;5079085;28;20041;-80
2022/01/28 10:50:26;;;;;;;0.75;0.75;;;5.80;99.90;;;;;;5077981;28;20078;-80
2022/01/28 10:53:03;;;;;;;0.60;0.60;;;5.90;99.90;;;;;;5073557;28;20071;-80
2022/01/28 10:55:33;;;;;;;0.80;0.80;;;6.00;99.90;;;;;;5077972;28;20143;-80
2022/01/28 10:58:07;;;;;;;0.60;0.60;;;6.00;99.90;;;;;;5074939;28;20040;-80
2022/01/28 11:00:39;;;;;;;0.70;0.70;;;6.00;99.90;;;;;;5078494;28;20040;-81
2022/01/28 11:03:09;;;;;;;0.82;0.82;;;6.00;99.90;;;;;;5066802;28;20049;-81
2022/01/28 11:05:37;;;;;;;0.60;0.60;;;6.00;99.90;;;;;;5079177;28;20120;-82
2022/01/28 11:08:05;;;;;;;0.60;0.60;;;6.00;99.90;;;;;;5066050;28;20563;-82
2022/01/28 11:10:31;;;;;;;0.60;0.60;;;6.00;99.90;;;;;;5071525;28;20040;-82
2022/01/28 11:12:59;;;;;;;1.30;1.10;;;6.10;99.90;;;;;;5079554;28;20053;-83
2022/01/28 11:15:25;;;;;;;0.60;0.60;;;6.20;99.90;;;;;;5081498;28;20049;-84
2022/01/28 11:17:52;;;;;;;1.88;1.13;;;6.20;99.90;;;;;;5062708;28;20037;-85
2022/01/28 11:20:32;;;;;;;0.57;0.57;;;6.30;99.90;;;;;;5064245;28;20040;-85
2022/01/28 11:23:19;;;;;;;0.93;0.88;;;6.40;99.90;;;;;;5058643;28;20082;-86
2022/01/28 11:26:15;;;;;;;1.05;1.00;;;6.40;99.90;;;;;;5078748;28;20067;-86
2022/01/28 11:28:55;;;;;;;1.27;1.17;;;6.40;99.90;;;;;;5061030;28;20047;-83
2022/01/28 11:31:39;;;;;;;0.60;0.60;;;6.40;99.90;;;;;;5059297;28;20107;-85
2022/01/28 11:34:24;;;;;;;1.00;0.90;;;6.40;99.90;;;;;;5079012;28;20041;-85
2022/01/28 11:36:52;;;;;;;1.85;1.50;;;6.30;99.90;;;;;;5059249;28;20040;-86
2022/01/28 11:39:32;;;;;;;0.65;0.65;;;6.30;99.90;;;;;;5058829;28;20123;-85
2022/01/28 11:42:04;;;;;;;0.70;0.70;;;6.10;99.90;;;;;;5058231;28;20033;-85
2022/01/28 11:44:54;;;;;;;0.60;0.60;;;6.00;99.90;;;;;;5061791;28;20040;-85
2022/01/28 11:47:53;;;;;;;0.70;0.70;;;6.00;99.90;;;;;;5076665;28;20040;-85
2022/01/28 11:50:23;;;;;;;0.70;0.70;;;6.00;99.90;;;;;;5058418;28;20103;-85
2022/01/28 11:52:52;;;;;;;0.70;0.70;;;6.10;99.90;;;;;;5061382;28;20051;-85
2022/01/28 11:55:17;;;;;;;0.80;0.80;;;6.20;99.90;;;;;;5077480;28;20068;-84
2022/01/28 11:57:58;;;;;;;0.60;0.60;;;6.30;99.90;;;;;;5074854;28;20086;-84
2022/01/28 12:00:45;;;;;;;1.25;1.15;;;6.40;99.90;;;;;;5063200;28;20120;-85
2022/01/28 12:03:19;;;;;;;0.70;0.70;;;6.70;99.90;;;;;;5054670;28;20098;-85
2022/01/28 12:05:44;;;;;;;1.40;1.33;;;6.80;99.90;;;;;;5063489;28;20044;-86
2022/01/28 12:08:18;;;;;;;1.27;1.13;;;6.90;99.90;;;;;;5062359;28;20100;-85
2022/01/28 12:10:45;;;;;;;;;;;7.00;99.90;;;;;;5062034;28;20112;-85
2022/01/28 12:13:15;;;;;;;0.60;0.60;;;7.10;99.90;;;;;;5076380;28;19920;-84
2022/01/28 12:16:01;;;;;;;0.75;0.73;;;7.20;99.90;;;;;;5067406;28;20067;-82
2022/01/28 12:18:45;;;;;;;4.65;1.00;;;7.30;99.90;;;;;;5077211;28;20068;-82
2022/01/28 12:21:20;;;;;;;1.05;1.05;;;7.40;99.90;;;;;;5047671;28;20044;-83
2022/01/28 12:23:47;;;;;;;1.20;1.10;;;7.30;99.90;;;;;;5075036;28;20064;-82
2022/01/28 12:26:16;;;;;;;0.60;0.60;;;7.30;99.90;;;;;;5076563;28;20493;-83
2022/01/28 12:28:53;;;;;;;1.20;1.02;;;7.30;99.90;;;;;;5076485;28;20037;-84
2022/01/28 12:31:26;;;;;;;0.60;0.60;;;7.30;99.90;;;;;;5073687;28;20094;-84
2022/01/28 12:33:54;;;;;;;0.80;0.80;;;7.30;99.90;;;;;;5076896;28;20123;-84
2022/01/28 12:36:26;;;;;;;0.70;0.70;;;7.20;99.90;;;;;;5059986;28;20052;-84
2022/01/28 12:41:55;;;;;;;0.60;0.60;;;7.20;99.90;;;;;;5035364;28;20074;-83
2022/01/28 12:44:22;;;;;;;0.65;0.65;;;7.10;99.90;;;;;;5059465;28;20060;-83
2022/01/28 12:46:58;;;;;;;0.70;0.70;;;7.20;99.90;;;;;;5076256;28;20050;-83
2022/01/28 12:49:32;;;;;;;0.98;0.98;;;7.20;99.90;;;;;;5077475;28;20140;-82
2022/01/28 12:52:00;;;;;;;0.70;0.70;;;7.20;99.90;;;;;;5077707;28;20047;-83
2022/01/28 12:54:46;;;;;;;5.20;1.35;;;7.30;99.90;;;;;;5077800;28;20119;-83
2022/01/28 12:57:14;;;;;;;1.95;0.80;;;7.20;99.90;;;;;;5075383;28;20151;-83
2022/01/28 12:59:42;;;;;;;1.33;1.05;;;7.10;99.90;;;;;;5077655;28;20044;-84
2022/01/28 13:02:08;;;;;;;2.40;1.65;;;7.00;99.90;;;;;;5077050;28;20211;-82
2022/01/28 13:05:10;;;;;;;1.35;0.80;;;6.90;99.90;;;;;;5060583;28;20044;-88
2022/01/28 13:10:27;;;;;;;5.15;0.82;;;6.70;99.90;;;;;;5076963;28;20063;-87
2022/01/28 13:13:05;;;;;;;1.15;1.15;;;6.60;99.90;;;;;;5078134;28;20056;-87
2022/01/28 13:15:31;;;;;;;0.60;0.60;;;6.60;99.90;;;;;;5061741;28;20056;-87
2022/01/28 13:17:58;;;;;;;4.97;1.42;;;6.70;99.90;;;;;;5075482;28;20048;-86
2022/01/28 13:20:31;;;;;;;0.57;0.57;;;6.80;99.90;;;;;;5057196;28;20040;-84
2022/01/28 13:22:56;;;;;;;0.52;0.52;;;6.90;99.90;;;;;;5060434;28;21021;-83
2022/01/28 13:25:28;;;;;;;0.70;0.70;;;7.00;99.90;;;;;;5078544;28;20044;-85
2022/01/28 13:27:59;;;;;;;0.63;0.63;;;7.00;99.90;;;;;;5076759;28;20044;-82
2022/01/28 13:30:25;;;;;;;0.63;0.63;;;7.00;99.90;;;;;;5075296;28;20041;-84
2022/01/28 13:32:52;;;;;;;0.70;0.70;;;6.90;99.90;;;;;;5070579;28;20064;-83
2022/01/28 13:35:24;;;;;;;0.60;0.60;;;6.90;99.90;;;;;;5078455;28;20032;-82
2022/01/28 13:38:00;;;;;;;0.50;0.50;;;6.70;99.90;;;;;;5078160;28;20040;-82
2022/01/28 13:40:29;;;;;;;6.25;1.17;;;6.70;99.90;;;;;;5075075;28;20067;-82
2022/01/28 13:43:14;;;;;;;0.68;0.68;;;6.70;99.90;;;;;;5071477;28;20094;-85
2022/01/28 13:45:43;;;;;;;10.40;1.00;;;6.80;99.90;;;;;;5072957;28;20083;-86
2022/01/28 13:48:14;;;;;;;0.60;0.60;;;6.80;99.90;;;;;;5073732;28;20548;-84
2022/01/28 13:50:45;;;;;;;0.82;0.82;;;6.80;99.90;;;;;;5059086;28;20177;-83
2022/01/28 13:55:53;;;;;;;0.90;0.90;;;6.70;99.90;;;;;;5075394;28;20161;-84
2022/01/28 13:58:20;;;;;;;0.75;0.70;;;6.70;99.90;;;;;;5076617;28;20061;-84
2022/01/28 14:00:51;;;;;;;0.55;0.55;;;6.80;99.90;;;;;;5077384;28;20048;-83
2022/01/28 14:03:22;;;;;;;0.70;0.70;;;6.80;99.90;;;;;;5074984;28;20044;-83
2022/01/28 14:06:00;;;;;;;0.70;0.70;;;6.90;99.90;;;;;;5077147;28;20093;-83
2022/01/28 14:08:49;;;;;;;0.63;0.63;;;6.80;99.90;;;;;;5073940;28;20045;-84
2022/01/28 14:11:35;;;;;;;0.60;0.60;;;6.80;99.90;;;;;;5076639;28;20076;-84
2022/01/28 14:14:14;;;;;;;2.38;1.42;;;6.90;99.90;;;;;;5074928;28;20056;-84
2022/01/28 14:16:40;;;;;;;0.63;0.63;;;6.90;99.90;;;;;;5071864;28;20075;-84
2022/01/28 14:19:10;;;;;;;1.77;1.67;;;6.90;99.90;;;;;;5057866;28;20044;-88
2022/01/28 14:21:40;;;;;;;0.60;0.60;;;7.00;99.90;;;;;;5075426;28;20048;-86
2022/01/28 14:24:34;;;;;;;0.60;0.60;;;6.90;99.90;;;;;;5051309;28;20044;-85
2022/01/28 14:32:15;;;;;;;0.75;0.75;;;7.00;99.90;;;;;;5071119;28;20045;-85
2022/01/28 14:34:49;;;;;;;0.60;0.60;;;7.00;99.90;;;;;;5085174;28;20071;-85
2022/01/28 14:37:15;;;;;;;1.95;1.30;;;6.90;99.90;;;;;;5058723;28;20048;-88
2022/01/28 14:39:42;;;;;;;1.20;1.20;;;6.80;99.90;;;;;;5058728;28;20074;-88
2022/01/28 14:42:11;;;;;;;1.15;1.02;;;6.90;99.90;;;;;;5061606;28;20089;-87